createdAt,value
2018-07-23T00:02:20.860Z,99.90
2018-07-23T00:04:49.838Z,99.90
2018-07-23T00:07:18.864Z,99.90
2018-07-23T00:09:48.649Z,99.90
2018-07-23T00:12:17.634Z,99.90
2018-07-23T00:14:46.644Z,99.90
2018-07-23T00:17:15.642Z,99.90
2018-07-23T00:19:44.693Z,99.90
2018-07-23T00:22:13.676Z,99.90
2018-07-23T00:24:42.996Z,99.90
2018-07-23T00:27:12.040Z,99.90
2018-07-23T00:29:41.203Z,99.90
2018-07-23T00:32:10.175Z,99.90
2018-07-23T00:34:39.147Z,99.90
2018-07-23T00:37:08.186Z,99.90
2018-07-23T00:42:06.847Z,99.90
2018-07-23T00:44:35.847Z,99.90
2018-07-23T00:47:04.828Z,99.90
2018-07-23T00:52:02.727Z,99.90
2018-07-23T00:57:00.626Z,99.90
2018-07-23T00:59:30.116Z,99.90
2018-07-23T01:01:59.160Z,99.90
2018-07-23T01:06:57.288Z,99.90
2018-07-23T01:09:27.263Z,99.90
2018-07-23T01:11:56.286Z,99.90
2018-07-23T01:14:25.319Z,99.90
2018-07-23T01:16:54.315Z,99.90
2018-07-23T01:19:23.619Z,99.90
2018-07-23T01:21:53.723Z,99.90
2018-07-23T01:24:23.616Z,99.90
2018-07-23T01:26:53.246Z,99.90
2018-07-23T01:29:22.410Z,99.90
2018-07-23T01:31:51.387Z,99.90
2018-07-23T01:39:17.695Z,99.90
2018-07-23T01:41:46.703Z,99.90
2018-07-23T01:44:15.674Z,99.90
2018-07-23T01:49:14.206Z,99.90
2018-07-23T01:51:43.218Z,99.90
2018-07-23T01:54:12.172Z,99.90
2018-07-23T01:56:41.162Z,99.90
2018-07-23T01:59:10.263Z,99.90
2018-07-23T02:01:39.231Z,99.90
2018-07-23T02:04:08.230Z,99.90
2018-07-23T02:06:37.203Z,99.90
2018-07-23T02:09:08.139Z,99.90
2018-07-23T02:11:37.155Z,99.90
2018-07-23T02:14:06.184Z,99.90
2018-07-23T02:16:36.012Z,99.90
2018-07-23T02:19:05.443Z,99.90
2018-07-23T02:21:35.337Z,99.90
2018-07-23T02:24:04.899Z,99.90
2018-07-23T02:26:33.999Z,99.90
2018-07-23T02:31:31.666Z,99.90
2018-07-23T02:34:01.529Z,99.90
2018-07-23T02:36:30.579Z,99.90
2018-07-23T02:38:59.597Z,99.90
2018-07-23T02:41:28.598Z,99.90
2018-07-23T02:43:58.563Z,99.90
2018-07-23T02:51:24.928Z,99.90
2018-07-23T02:53:54.400Z,99.90
2018-07-23T02:56:24.321Z,99.90
2018-07-23T02:58:54.285Z,99.90
2018-07-23T03:01:23.293Z,99.90
2018-07-23T03:03:56.129Z,99.90
2018-07-23T03:06:26.521Z,99.90
2018-07-23T03:08:55.780Z,99.90
2018-07-23T03:11:25.226Z,99.90
2018-07-23T03:16:24.442Z,99.90
2018-07-23T03:18:54.308Z,99.90
2018-07-23T03:21:23.297Z,99.90
2018-07-23T03:23:53.099Z,99.90
2018-07-23T03:26:22.097Z,99.90
2018-07-23T03:28:51.067Z,99.90
2018-07-23T03:33:48.868Z,99.90
2018-07-23T03:36:17.878Z,99.90
2018-07-23T03:38:46.903Z,99.90
2018-07-23T03:41:22.766Z,99.90
2018-07-23T03:43:51.970Z,99.90
2018-07-23T03:46:20.972Z,99.90
2018-07-23T03:48:50.051Z,99.90
2018-07-23T03:51:19.047Z,99.90
2018-07-23T03:53:48.032Z,99.90
2018-07-23T03:56:17.064Z,99.90
2018-07-23T04:01:14.687Z,99.90
2018-07-23T04:03:43.736Z,99.90
2018-07-23T04:06:12.751Z,99.90
2018-07-23T04:08:41.735Z,99.90
2018-07-23T04:11:10.740Z,99.90
2018-07-23T04:13:39.746Z,99.90
2018-07-23T04:16:09.556Z,99.90
2018-07-23T04:18:38.546Z,99.90
2018-07-23T04:21:07.521Z,99.90
2018-07-23T04:23:36.507Z,99.90
2018-07-23T04:28:34.140Z,99.90
2018-07-23T04:31:03.147Z,99.90
2018-07-23T04:33:32.134Z,99.90
2018-07-23T04:36:01.168Z,99.90
2018-07-23T04:38:30.140Z,99.90
2018-07-23T04:40:59.184Z,99.90
2018-07-23T04:43:28.184Z,99.90
2018-07-23T04:45:57.184Z,99.90
2018-07-23T04:48:27.143Z,99.90
2018-07-23T04:50:56.104Z,99.90
2018-07-23T04:53:25.166Z,99.90
2018-07-23T04:58:22.859Z,99.90
2018-07-23T05:00:51.816Z,99.90
2018-07-23T05:03:20.823Z,99.90
2018-07-23T05:05:49.862Z,99.90
2018-07-23T05:08:19.083Z,99.90
2018-07-23T05:10:48.036Z,99.90
2018-07-23T05:15:45.702Z,99.90
2018-07-23T05:18:14.704Z,99.90
2018-07-23T05:20:43.740Z,99.90
2018-07-23T05:23:13.154Z,99.90
2018-07-23T05:28:10.782Z,99.90
2018-07-23T05:30:39.743Z,99.90
2018-07-23T05:33:08.726Z,99.90
2018-07-23T05:35:37.691Z,99.90
2018-07-23T05:38:06.668Z,99.90
2018-07-23T05:40:36.283Z,99.90
2018-07-23T05:43:05.547Z,99.90
2018-07-23T05:45:34.527Z,99.90
2018-07-23T05:48:03.546Z,99.90
2018-07-23T05:50:32.568Z,99.90
2018-07-23T05:53:01.571Z,99.90
2018-07-23T05:55:30.556Z,99.90
2018-07-23T05:57:59.600Z,99.90
2018-07-23T06:00:28.606Z,99.90
2018-07-23T06:02:57.835Z,99.70
2018-07-23T06:05:27.714Z,98.70
2018-07-23T06:07:57.639Z,96.60
2018-07-23T06:10:28.307Z,94.30
2018-07-23T06:15:26.447Z,91.60
2018-07-23T06:20:24.082Z,92.60
2018-07-23T06:22:53.051Z,95.20
2018-07-23T06:25:22.039Z,96.80
2018-07-23T06:27:51.075Z,99.90
2018-07-23T06:30:20.100Z,99.90
2018-07-23T06:32:49.070Z,99.90
2018-07-23T06:35:18.048Z,99.90
2018-07-23T06:37:47.049Z,99.90
2018-07-23T06:40:16.126Z,99.90
2018-07-23T06:42:45.143Z,99.90
2018-07-23T06:45:14.115Z,99.90
2018-07-23T06:47:43.171Z,99.90
2018-07-23T06:50:12.308Z,99.90
2018-07-23T06:52:41.279Z,99.90
2018-07-23T06:55:10.223Z,99.90
2018-07-23T06:57:40.175Z,99.90
2018-07-23T07:00:09.220Z,99.90
2018-07-23T07:02:38.195Z,99.90
2018-07-23T07:05:07.210Z,99.90
2018-07-23T07:07:36.224Z,99.90
2018-07-23T07:10:05.990Z,99.90
2018-07-23T07:15:03.655Z,99.90
2018-07-23T07:17:32.691Z,99.90
2018-07-23T07:20:01.806Z,99.90
2018-07-23T07:22:30.747Z,99.90
2018-07-23T07:24:59.842Z,99.90
2018-07-23T07:27:28.839Z,99.90
2018-07-23T07:29:58.079Z,99.90
2018-07-23T07:32:28.013Z,99.90
2018-07-23T07:34:57.976Z,99.90
2018-07-23T07:37:27.910Z,99.90
2018-07-23T07:39:56.880Z,99.90
2018-07-23T07:42:25.843Z,99.90
2018-07-23T07:44:54.824Z,99.90
2018-07-23T07:47:23.881Z,99.90
2018-07-23T07:49:52.879Z,99.90
2018-07-23T07:52:21.848Z,99.90
2018-07-23T07:54:50.823Z,99.90
2018-07-23T07:57:19.831Z,99.80
2018-07-23T07:59:48.871Z,99.90
2018-07-23T08:02:17.870Z,99.90
2018-07-23T08:04:46.827Z,99.00
2018-07-23T08:09:44.631Z,99.50
2018-07-23T08:14:42.249Z,99.90
2018-07-23T08:17:11.527Z,99.90
2018-07-23T08:19:40.559Z,99.90
2018-07-23T08:22:09.554Z,99.90
2018-07-23T08:29:36.015Z,99.90
2018-07-23T08:32:06.133Z,99.90
2018-07-23T08:34:34.950Z,99.90
2018-07-23T08:37:03.967Z,99.90
2018-07-23T08:39:33.741Z,99.90
2018-07-23T08:42:02.796Z,99.90
2018-07-23T08:47:00.514Z,99.90
2018-07-23T08:49:29.624Z,99.90
2018-07-23T08:51:58.807Z,99.90
2018-07-23T08:56:57.509Z,99.90
2018-07-23T08:59:26.532Z,99.90
2018-07-23T09:04:24.143Z,99.90
2018-07-23T09:06:53.279Z,99.90
2018-07-23T09:09:22.264Z,99.90
2018-07-23T09:11:51.239Z,99.90
2018-07-23T09:14:20.442Z,99.90
2018-07-23T09:16:49.406Z,99.90
2018-07-23T09:21:47.089Z,99.90
2018-07-23T09:24:16.081Z,99.90
2018-07-23T09:26:45.030Z,99.90
2018-07-23T09:29:13.994Z,99.90
2018-07-23T09:31:43.044Z,99.90
2018-07-23T09:34:11.986Z,99.90
2018-07-23T09:36:40.979Z,99.90
2018-07-23T09:39:11.374Z,99.90
2018-07-23T09:41:40.350Z,99.90
2018-07-23T09:44:09.390Z,99.90
2018-07-23T09:46:38.383Z,99.90
2018-07-23T09:49:07.414Z,99.90
2018-07-23T09:51:36.391Z,99.90
2018-07-23T09:56:34.265Z,99.90
2018-07-23T09:59:03.282Z,99.90
2018-07-23T10:01:32.313Z,99.90
2018-07-23T10:04:01.284Z,99.90
2018-07-23T10:06:30.234Z,99.90
2018-07-23T10:13:57.355Z,99.90
2018-07-23T10:16:26.371Z,99.90
2018-07-23T10:18:55.367Z,99.90
2018-07-23T10:23:53.910Z,99.90
2018-07-23T10:26:22.915Z,99.90
2018-07-23T10:28:51.939Z,99.90
2018-07-23T10:31:20.956Z,99.90
2018-07-23T10:33:49.940Z,99.50
2018-07-23T10:36:18.919Z,99.90
2018-07-23T10:38:47.872Z,99.90
2018-07-23T10:41:16.916Z,99.90
2018-07-23T10:43:45.890Z,99.90
2018-07-23T10:48:44.303Z,99.90
2018-07-23T10:51:13.351Z,98.90
2018-07-23T10:53:42.364Z,98.60
2018-07-23T10:56:11.344Z,99.60
2018-07-23T10:58:40.353Z,98.50
2018-07-23T11:01:09.331Z,98.40
2018-07-23T11:03:38.346Z,97.60
2018-07-23T11:06:07.370Z,98.30
2018-07-23T11:08:36.307Z,98.20
2018-07-23T11:11:05.335Z,97.80
2018-07-23T11:16:03.080Z,96.20
2018-07-23T11:18:32.119Z,96.40
2018-07-23T11:21:01.178Z,95.70
2018-07-23T11:23:30.223Z,96.70
2018-07-23T11:26:00.739Z,96.60
2018-07-23T11:28:29.853Z,96.20
2018-07-23T11:30:59.935Z,95.30
2018-07-23T11:33:29.831Z,94.70
2018-07-23T11:45:23.752Z,93.70
2018-07-23T11:47:52.751Z,94.30
2018-07-23T11:50:21.700Z,94.30
2018-07-23T11:52:50.662Z,94.80
2018-07-23T11:55:19.645Z,95.20
2018-07-23T11:57:48.627Z,94.80
2018-07-23T12:00:17.603Z,94.60
2018-07-23T12:02:46.618Z,95.60
2018-07-23T12:05:15.603Z,95.60
2018-07-23T12:07:44.640Z,95.60
2018-07-23T12:10:13.553Z,95.90
2018-07-23T12:12:42.539Z,95.00
2018-07-23T12:15:11.515Z,95.20
2018-07-23T12:17:40.555Z,96.10
2018-07-23T12:20:09.488Z,96.90
2018-07-23T12:22:38.463Z,97.20
2018-07-23T12:25:07.411Z,96.80
2018-07-23T12:27:36.419Z,97.40
2018-07-23T12:30:05.463Z,97.10
2018-07-23T12:32:34.574Z,96.70
2018-07-23T12:35:03.508Z,96.00
2018-07-23T12:37:32.515Z,96.30
2018-07-23T12:40:01.615Z,95.70
2018-07-23T12:42:30.623Z,94.20
2018-07-23T12:45:00.198Z,93.60
2018-07-23T12:52:55.007Z,92.60
2018-07-23T12:55:23.952Z,93.00
2018-07-23T12:57:53.028Z,92.40
2018-07-23T13:00:22.008Z,91.90
2018-07-23T13:02:51.220Z,92.20
2018-07-23T13:05:22.530Z,92.40
2018-07-23T13:07:52.617Z,92.20
2018-07-23T13:10:21.604Z,92.50
2018-07-23T13:12:50.570Z,91.10
2018-07-23T13:17:48.864Z,91.10
2018-07-23T13:20:17.862Z,91.80
2018-07-23T13:22:47.116Z,91.30
2018-07-23T13:25:16.198Z,91.10
2018-07-23T13:30:13.978Z,91.80
2018-07-23T13:32:44.011Z,91.70
2018-07-23T13:35:13.005Z,91.40
2018-07-23T13:37:42.574Z,91.50
2018-07-23T13:40:11.615Z,91.40
2018-07-23T13:42:40.676Z,91.00
2018-07-23T13:45:09.667Z,90.30
2018-07-23T13:50:07.283Z,90.70
2018-07-23T13:52:36.266Z,90.80
2018-07-23T13:55:05.259Z,90.10
2018-07-23T14:00:03.258Z,91.50
2018-07-23T14:02:32.967Z,90.50
2018-07-23T14:05:02.303Z,90.40
2018-07-23T14:07:31.864Z,90.20
2018-07-23T14:10:01.540Z,90.10
2018-07-23T14:12:31.548Z,90.10
2018-07-23T14:15:01.508Z,90.30
2018-07-23T14:17:30.557Z,90.80
2018-07-23T14:20:00.532Z,90.70
2018-07-23T14:22:30.718Z,91.10
2018-07-23T14:25:00.595Z,91.00
2018-07-23T14:27:30.862Z,91.70
2018-07-23T14:30:00.640Z,92.20
2018-07-23T14:32:30.763Z,91.90
2018-07-23T14:35:00.612Z,91.90
2018-07-23T14:37:30.555Z,91.40
2018-07-23T14:39:59.746Z,91.20
2018-07-23T14:42:28.808Z,91.40
2018-07-23T14:44:58.026Z,91.30
2018-07-23T14:47:27.154Z,90.20
2018-07-23T14:49:56.090Z,90.00
2018-07-23T14:52:25.064Z,91.00
2018-07-23T14:54:54.051Z,91.20
2018-07-23T14:57:23.088Z,90.40
2018-07-23T14:59:52.079Z,91.10
2018-07-23T15:04:50.034Z,91.70
2018-07-23T15:07:19.002Z,92.00
2018-07-23T15:09:48.027Z,91.90
2018-07-23T15:12:17.013Z,90.60
2018-07-23T15:14:45.975Z,90.80
2018-07-23T15:17:14.959Z,91.70
2018-07-23T15:22:12.583Z,90.80
2018-07-23T15:24:41.659Z,91.30
2018-07-23T15:27:10.701Z,91.00
2018-07-23T15:29:39.653Z,90.00
2018-07-23T15:32:08.676Z,90.40
2018-07-23T15:37:06.278Z,86.50
2018-07-23T15:42:03.928Z,88.60
2018-07-23T15:44:33.277Z,87.90
2018-07-23T15:47:02.183Z,86.70
2018-07-23T15:49:31.191Z,88.20
2018-07-23T15:54:29.783Z,87.00
2018-07-23T15:56:58.814Z,88.10
2018-07-23T15:59:27.807Z,86.40
2018-07-23T16:04:25.511Z,86.40
2018-07-23T16:09:23.374Z,88.10
2018-07-23T16:11:52.430Z,87.10
2018-07-23T16:14:21.474Z,88.10
2018-07-23T16:16:50.457Z,88.70
2018-07-23T16:19:19.447Z,87.40
2018-07-23T16:21:48.459Z,87.90
2018-07-23T16:24:17.474Z,87.80
2018-07-23T16:26:46.408Z,87.50
2018-07-23T16:29:15.388Z,86.70
2018-07-23T16:31:44.387Z,86.40
2018-07-23T16:34:13.355Z,84.80
2018-07-23T16:36:42.339Z,83.80
2018-07-23T16:41:42.038Z,81.50
2018-07-23T16:44:11.012Z,81.50
2018-07-23T16:46:40.019Z,81.90
2018-07-23T16:51:37.602Z,80.70
2018-07-23T16:54:06.323Z,81.90
2018-07-23T16:59:03.964Z,83.30
2018-07-23T17:01:33.102Z,84.60
2018-07-23T17:04:03.229Z,85.50
2018-07-23T17:06:32.309Z,85.40
2018-07-23T17:09:01.737Z,86.30
2018-07-23T17:20:26.733Z,87.70
2018-07-23T17:23:11.885Z,86.90
2018-07-23T17:25:40.829Z,89.30
2018-07-23T17:30:38.572Z,90.10
2018-07-23T17:33:07.982Z,90.20
2018-07-23T17:35:37.086Z,90.30
2018-07-23T17:38:06.120Z,90.30
2018-07-23T17:40:35.125Z,90.50
2018-07-23T17:43:04.158Z,90.70
2018-07-23T17:48:01.879Z,91.30
2018-07-23T17:50:32.077Z,91.70
2018-07-23T17:53:02.029Z,92.10
2018-07-23T17:55:31.960Z,92.70
2018-07-23T17:58:01.914Z,92.40
2018-07-23T18:10:26.183Z,92.60
2018-07-23T18:12:55.141Z,92.50
2018-07-23T18:15:24.179Z,94.20
2018-07-23T18:20:21.860Z,94.40
2018-07-23T18:25:19.502Z,94.90
2018-07-23T18:27:48.538Z,95.20
2018-07-23T18:30:17.805Z,95.70
2018-07-23T18:32:46.836Z,96.00
2018-07-23T18:37:45.734Z,96.70
2018-07-23T18:40:14.855Z,97.20
2018-07-23T18:45:12.531Z,98.10
2018-07-23T18:47:41.541Z,98.50
2018-07-23T18:50:10.562Z,98.90
2018-07-23T18:52:39.546Z,99.20
2018-07-23T18:55:08.889Z,99.50
2018-07-23T19:00:06.663Z,99.90
2018-07-23T19:02:35.640Z,99.90
2018-07-23T19:05:05.372Z,99.90
2018-07-23T19:07:34.342Z,99.90
2018-07-23T19:10:03.484Z,99.90
2018-07-23T19:12:32.795Z,99.90
2018-07-23T19:17:31.590Z,99.90
2018-07-23T19:20:00.616Z,99.90
2018-07-23T19:22:29.612Z,99.90
2018-07-23T19:24:58.664Z,99.90
2018-07-23T19:27:27.771Z,99.90
2018-07-23T19:29:56.843Z,99.90
2018-07-23T19:32:25.899Z,99.90
2018-07-23T19:34:54.924Z,99.90
2018-07-23T19:37:23.944Z,99.90
2018-07-23T19:39:52.970Z,99.90
2018-07-23T19:42:22.129Z,99.90
2018-07-23T19:44:51.114Z,99.90
2018-07-23T19:47:21.068Z,99.90
2018-07-23T19:49:51.177Z,99.90
2018-07-23T19:52:21.155Z,99.90
2018-07-23T19:54:50.418Z,99.90
2018-07-23T19:57:19.443Z,99.90
2018-07-23T19:59:48.572Z,99.90
2018-07-23T20:02:17.606Z,99.90
2018-07-23T20:04:46.664Z,99.90
2018-07-23T20:07:15.714Z,99.90
2018-07-23T20:10:27.481Z,99.90
2018-07-23T20:12:56.604Z,99.90
2018-07-23T20:15:25.623Z,99.90
2018-07-23T20:17:56.107Z,99.90
2018-07-23T20:20:25.155Z,99.90
2018-07-23T20:22:54.159Z,99.90
2018-07-23T20:27:51.927Z,99.90
2018-07-23T20:30:21.043Z,99.90
2018-07-23T20:32:50.187Z,99.90
2018-07-23T20:35:19.236Z,99.90
2018-07-23T20:37:48.336Z,99.90
2018-07-23T20:40:17.419Z,99.90
2018-07-23T20:42:47.022Z,99.90
2018-07-23T20:45:16.131Z,99.90
2018-07-23T20:47:45.342Z,99.90
2018-07-23T20:50:14.433Z,99.90
2018-07-23T20:52:43.496Z,99.90
2018-07-23T20:55:12.564Z,99.90
2018-07-23T20:57:41.593Z,99.90
2018-07-23T21:00:11.530Z,99.90
2018-07-23T21:02:41.550Z,99.90
2018-07-23T21:05:10.599Z,99.90
2018-07-23T21:07:39.600Z,99.90
2018-07-23T21:10:08.626Z,99.90
2018-07-23T21:12:37.690Z,99.90
2018-07-23T21:15:07.599Z,99.90
2018-07-23T21:17:36.525Z,99.90
2018-07-23T21:20:06.614Z,99.90
2018-07-23T21:22:35.658Z,99.90
2018-07-23T21:25:05.263Z,99.90
2018-07-23T21:27:35.242Z,99.90
2018-07-23T21:30:05.968Z,99.90
2018-07-23T21:32:35.193Z,99.90
2018-07-23T21:35:05.655Z,99.90
2018-07-23T21:37:35.296Z,99.90
2018-07-23T21:40:05.944Z,99.90
2018-07-23T21:42:35.231Z,99.90
2018-07-23T21:45:05.983Z,99.90
2018-07-23T21:47:35.918Z,99.90
2018-07-23T21:50:06.759Z,99.90
2018-07-23T21:52:35.877Z,99.90
2018-07-23T21:55:05.995Z,99.90
2018-07-23T21:57:35.414Z,99.90
2018-07-23T22:02:36.524Z,99.90
2018-07-23T22:05:06.630Z,99.90
2018-07-23T22:07:35.709Z,99.90
2018-07-23T22:10:05.599Z,99.90
2018-07-23T22:12:38.366Z,99.90
2018-07-23T22:15:09.323Z,99.90
2018-07-23T22:17:38.385Z,99.90
2018-07-23T22:20:07.999Z,99.90
2018-07-23T22:22:37.006Z,99.90
2018-07-23T22:25:06.099Z,99.90
2018-07-23T22:30:04.221Z,99.90
2018-07-23T22:32:33.194Z,99.90
2018-07-23T22:37:30.828Z,99.90
2018-07-23T22:42:31.091Z,99.90
2018-07-23T22:45:00.241Z,99.90
2018-07-23T22:47:29.258Z,99.90
2018-07-23T22:49:58.258Z,99.90
2018-07-23T22:52:27.235Z,99.90
2018-07-23T22:54:56.226Z,99.90
2018-07-23T22:57:25.198Z,99.90
2018-07-23T22:59:54.163Z,99.90
2018-07-23T23:04:51.835Z,99.90
2018-07-23T23:07:20.806Z,99.90
2018-07-23T23:09:49.823Z,99.90
2018-07-23T23:12:18.846Z,99.90
2018-07-23T23:14:47.882Z,99.90
2018-07-23T23:19:45.746Z,99.90
2018-07-23T23:22:14.747Z,99.90
2018-07-23T23:24:43.923Z,99.90
2018-07-23T23:27:12.870Z,99.90
2018-07-23T23:29:41.850Z,99.90
2018-07-23T23:32:10.857Z,99.90
2018-07-23T23:34:39.859Z,99.90
2018-07-23T23:37:08.895Z,99.90
2018-07-23T23:39:37.875Z,99.90
2018-07-23T23:42:06.827Z,99.90
2018-07-23T23:44:36.458Z,99.90
2018-07-23T23:49:34.474Z,99.90
2018-07-23T23:52:03.436Z,99.90
2018-07-23T23:54:32.451Z,99.90
2018-07-23T23:59:30.067Z,99.90
